Terminal Aerodrome Forecast
Issued by NWS

Home | Current Version | Previous Version | Graphics & Text | Print | Product List | Glossary On
Versions: 1 2 3 4 5 6 7 8 9 10 11 12 13 14 15 16 17 18
000
FTUS43 KABR 252320
TAFPIR
TAF
KPIR 252320Z 2600/2624 30012G19KT P6SM SCT150
     FM260200 31009KT P6SM FEW250
     FM261500 29014G23KT P6SM FEW250=

USA.gov is the U.S. government's official web portal to all federal, state and local government web resources and services.